Rosburg, Washington
Current Conditions -  °F | °C
As of 8:29 AM on Sunday 21 Dec 2014 (Local Time) from KAST Reporting Station
Overcast Overcast  
Wind Chill: 54°   Ceiling: 3200
Heat Index: 54°   Visibility: 8mi
Dew Point: 51°   Wind: 13mph
Humidity: 90%   Direction: 240°WSW
Pressure: 29.98"   Gusts: NA
Location:  46.33°N, 123.64°W
Report Text: KAST 211629Z AUTO 24011KT 8SM SCT014 BKN032 OVC110 12/11 A2998 RMK AO2 T01220106 $
Loading
Personal Weather Stations






























Interactive Weather Map New forecast layout! Learn more

10-Day Weather Forecast

Advertisements
Track Severe Weather on mobile